createdAt,value
2023-02-11T00:00:02.669Z,1013.38
2023-02-11T00:01:02.619Z,1013.35
2023-02-11T00:02:02.653Z,1013.23
2023-02-11T00:03:02.618Z,1013.23
2023-02-11T00:04:02.595Z,1013.24
2023-02-11T00:05:02.589Z,1013.20
2023-02-11T00:06:02.601Z,1013.21
2023-02-11T00:07:02.586Z,1013.20
2023-02-11T00:08:02.571Z,1013.14
2023-02-11T00:09:02.559Z,1013.05
2023-02-11T00:10:02.546Z,1013.02
2023-02-11T00:11:02.537Z,1013.01
2023-02-11T00:12:02.554Z,1013.04
2023-02-11T00:13:02.519Z,1013.05
2023-02-11T00:14:02.553Z,1013.08
2023-02-11T00:15:02.503Z,1013.13
2023-02-11T00:16:02.497Z,1013.17
2023-02-11T00:17:02.864Z,1013.17
2023-02-11T00:18:02.500Z,1013.07
2023-02-11T00:19:02.469Z,1013.15
2023-02-11T00:20:02.482Z,1013.12
2023-02-11T00:21:02.457Z,1013.03
2023-02-11T00:22:02.488Z,1013.00
2023-02-11T00:23:02.444Z,1012.96
2023-02-11T00:24:02.474Z,1012.96
2023-02-11T00:25:02.437Z,1012.98
2023-02-11T00:26:02.432Z,1012.97
2023-02-11T00:27:03.449Z,1012.84
2023-02-11T00:28:02.416Z,1012.89
2023-02-11T00:29:02.445Z,1012.74
2023-02-11T00:30:02.402Z,1012.66
2023-02-11T00:31:02.479Z,1012.69
2023-02-11T00:32:02.414Z,1012.77
2023-02-11T00:33:02.368Z,1012.74
2023-02-11T00:34:02.365Z,1012.68
2023-02-11T00:35:02.356Z,1012.61
2023-02-11T00:36:02.378Z,1012.66
2023-02-11T00:37:02.367Z,1012.62
2023-02-11T00:38:02.343Z,1012.58
2023-02-11T00:39:02.317Z,1012.45
2023-02-11T00:40:04.986Z,1012.54
2023-02-11T00:41:02.312Z,1012.51
2023-02-11T00:42:02.349Z,1012.44
2023-02-11T00:43:02.288Z,1012.47
2023-02-11T00:44:02.286Z,1012.47
2023-02-11T00:45:02.279Z,1012.36
2023-02-11T00:46:02.317Z,1012.42
2023-02-11T00:47:02.290Z,1012.38
2023-02-11T00:48:02.273Z,1012.35
2023-02-11T00:49:02.245Z,1012.33
2023-02-11T00:50:02.228Z,1012.28
2023-02-11T00:51:02.227Z,1012.28
2023-02-11T00:52:02.251Z,1012.28
2023-02-11T00:53:02.216Z,1012.24
2023-02-11T00:54:02.208Z,1012.21
2023-02-11T00:55:02.220Z,1012.22
2023-02-11T00:56:02.189Z,1012.26
2023-02-11T00:57:02.213Z,1012.23
2023-02-11T00:58:02.181Z,1012.25
2023-02-11T00:59:03.078Z,1012.23
2023-02-11T01:00:02.180Z,1012.27
2023-02-11T01:01:02.172Z,1012.19
2023-02-11T01:02:02.184Z,1012.14
2023-02-11T01:03:02.149Z,1012.09
2023-02-11T01:04:02.157Z,1012.03
2023-02-11T01:05:02.221Z,1012.10
2023-02-11T01:06:02.118Z,1012.02
2023-02-11T01:07:02.144Z,1012.03
2023-02-11T01:08:02.179Z,1012.05
2023-02-11T01:09:02.104Z,1012.00
2023-02-11T01:10:03.101Z,1012.06
2023-02-11T01:11:02.093Z,1012.04
2023-02-11T01:12:02.106Z,1012.01
2023-02-11T01:13:02.086Z,1012.05
2023-02-11T01:14:02.066Z,1012.01
2023-02-11T01:15:02.045Z,1012.02
2023-02-11T01:16:02.141Z,1011.95
2023-02-11T01:17:02.074Z,1011.98
2023-02-11T01:18:02.032Z,1011.96
2023-02-11T01:19:02.021Z,1011.95
2023-02-11T01:20:02.041Z,1011.94
2023-02-11T01:21:02.012Z,1011.94
2023-02-11T01:22:02.034Z,1011.99
2023-02-11T01:23:02.022Z,1011.95
2023-02-11T01:24:02.072Z,1012.06
2023-02-11T01:25:01.990Z,1012.10
2023-02-11T01:26:01.975Z,1012.06
2023-02-11T01:27:02.018Z,1012.04
2023-02-11T01:28:01.991Z,1012.10
2023-02-11T01:29:01.960Z,1012.14
2023-02-11T01:30:01.972Z,1012.12
2023-02-11T01:31:01.962Z,1012.17
2023-02-11T01:32:03.023Z,1012.13
2023-02-11T01:33:01.935Z,1012.16
2023-02-11T01:34:01.941Z,1012.16
2023-02-11T01:35:01.928Z,1012.04
2023-02-11T01:36:02.674Z,1012.10
2023-02-11T01:37:01.942Z,1012.09
2023-02-11T01:38:01.887Z,1012.03
2023-02-11T01:39:01.881Z,1012.05
2023-02-11T01:40:01.886Z,1012.07
2023-02-11T01:41:01.878Z,1012.08
2023-02-11T01:42:01.865Z,1012.09
2023-02-11T01:43:01.892Z,1012.08
2023-02-11T01:44:01.838Z,1012.00
2023-02-11T01:45:01.879Z,1011.99
2023-02-11T01:46:01.889Z,1012.03
2023-02-11T01:47:01.823Z,1012.03
2023-02-11T01:48:01.833Z,1012.03
2023-02-11T01:49:01.884Z,1012.01
2023-02-11T01:50:01.987Z,1012.09
2023-02-11T01:51:01.809Z,1011.92
2023-02-11T01:52:01.802Z,1012.06
2023-02-11T01:53:01.803Z,1011.99
2023-02-11T01:54:01.777Z,1012.02
2023-02-11T01:55:02.760Z,1012.04
2023-02-11T01:56:01.769Z,1012.00
2023-02-11T01:57:01.750Z,1012.04
2023-02-11T01:58:01.772Z,1012.03
2023-02-11T01:59:01.748Z,1012.12
2023-02-11T02:00:01.769Z,1012.11
2023-02-11T02:01:01.726Z,1012.15
2023-02-11T02:02:01.787Z,1012.12
2023-02-11T02:03:01.752Z,1012.12
2023-02-11T02:04:01.796Z,1012.15
2023-02-11T02:05:01.696Z,1012.25
2023-02-11T02:06:01.746Z,1012.15
2023-02-11T02:07:01.675Z,1012.23
2023-02-11T02:08:01.693Z,1012.16
2023-02-11T02:09:01.665Z,1012.26
2023-02-11T02:10:01.682Z,1012.31
2023-02-11T02:11:01.673Z,1012.26
2023-02-11T02:12:01.636Z,1012.25
2023-02-11T02:13:01.680Z,1012.15
2023-02-11T02:14:01.628Z,1012.21
2023-02-11T02:15:01.641Z,1012.25
2023-02-11T02:16:01.714Z,1012.24
2023-02-11T02:17:01.596Z,1012.27
2023-02-11T02:18:01.615Z,1012.26
2023-02-11T02:19:01.604Z,1012.30
2023-02-11T02:20:01.570Z,1012.29
2023-02-11T02:21:01.568Z,1012.23
2023-02-11T02:22:01.614Z,1012.23
2023-02-11T02:23:01.616Z,1012.16
2023-02-11T02:24:01.554Z,1012.23
2023-02-11T02:25:01.541Z,1012.22
2023-02-11T02:26:01.539Z,1012.20
2023-02-11T02:27:01.543Z,1012.13
2023-02-11T02:28:01.557Z,1012.12
2023-02-11T02:29:01.519Z,1012.14
2023-02-11T02:30:01.501Z,1012.24
2023-02-11T02:31:01.601Z,1012.12
2023-02-11T02:32:01.490Z,1012.13
2023-02-11T02:33:07.957Z,1012.10
2023-02-11T02:34:03.491Z,1012.01
2023-02-11T02:35:01.494Z,1012.07
2023-02-11T02:36:01.466Z,1011.99
2023-02-11T02:37:01.445Z,1012.02
2023-02-11T02:38:02.469Z,1011.99
2023-02-11T02:39:01.459Z,1011.90
2023-02-11T02:40:01.566Z,1011.97
2023-02-11T02:41:01.411Z,1011.94
2023-02-11T02:42:01.439Z,1011.84
2023-02-11T02:43:01.455Z,1011.89
2023-02-11T02:44:01.390Z,1011.74
2023-02-11T02:45:01.391Z,1011.72
2023-02-11T02:46:01.382Z,1011.76
2023-02-11T02:47:01.406Z,1011.68
2023-02-11T02:48:01.390Z,1011.70
2023-02-11T02:49:01.362Z,1011.67
2023-02-11T02:50:01.379Z,1011.56
2023-02-11T02:51:01.347Z,1011.55
2023-02-11T02:52:01.367Z,1011.44
2023-02-11T02:53:01.359Z,1011.37
2023-02-11T02:54:01.323Z,1011.40
2023-02-11T02:55:01.318Z,1011.36
2023-02-11T02:56:01.321Z,1011.40
2023-02-11T02:57:01.319Z,1011.40
2023-02-11T02:58:01.340Z,1011.42
2023-02-11T02:59:01.324Z,1011.39
2023-02-11T03:00:01.274Z,1011.42
2023-02-11T03:01:01.308Z,1011.46
2023-02-11T03:02:01.273Z,1011.38
2023-02-11T03:03:01.297Z,1011.37
2023-02-11T03:04:01.349Z,1011.36
2023-02-11T03:05:02.246Z,1011.40
2023-02-11T03:06:02.237Z,1011.46
2023-02-11T03:07:01.233Z,1011.39
2023-02-11T03:08:01.224Z,1011.43
2023-02-11T03:09:01.261Z,1011.41
2023-02-11T03:10:01.218Z,1011.41
2023-02-11T03:11:01.202Z,1011.41
2023-02-11T03:12:01.199Z,1011.43
2023-02-11T03:13:01.201Z,1011.29
2023-02-11T03:14:01.228Z,1011.41
2023-02-11T03:15:01.177Z,1011.37
2023-02-11T03:16:01.189Z,1011.36
2023-02-11T03:17:01.171Z,1011.30
2023-02-11T03:18:01.154Z,1011.36
2023-02-11T03:19:01.195Z,1011.32
2023-02-11T03:20:01.814Z,1011.39
2023-02-11T03:21:01.153Z,1011.37
2023-02-11T03:22:01.147Z,1011.39
2023-02-11T03:23:01.139Z,1011.34
2023-02-11T03:24:01.142Z,1011.40
2023-02-11T03:25:01.100Z,1011.36
2023-02-11T03:26:01.092Z,1011.41
2023-02-11T03:27:01.222Z,1011.39
2023-02-11T03:28:01.111Z,1011.39
2023-02-11T03:29:01.099Z,1011.41
2023-02-11T03:30:01.069Z,1011.33
2023-02-11T03:31:01.103Z,1011.37
2023-02-11T03:32:01.044Z,1011.37
2023-02-11T03:33:01.060Z,1011.39
2023-02-11T03:34:01.076Z,1011.38
2023-02-11T03:35:01.036Z,1011.36
2023-02-11T03:36:01.033Z,1011.37
2023-02-11T03:37:01.027Z,1011.43
2023-02-11T03:38:01.021Z,1011.43
2023-02-11T03:39:01.031Z,1011.38
2023-02-11T03:40:00.988Z,1011.41
2023-02-11T03:41:00.990Z,1011.39
2023-02-11T03:42:00.994Z,1011.42
2023-02-11T03:43:00.970Z,1011.37
2023-02-11T03:44:01.000Z,1011.33
2023-02-11T03:45:00.958Z,1011.32
2023-02-11T03:46:00.984Z,1011.29
2023-02-11T03:47:00.969Z,1011.24
2023-02-11T03:48:00.933Z,1011.25
2023-02-11T03:49:00.957Z,1011.22
2023-02-11T03:50:00.944Z,1011.23
2023-02-11T03:51:00.917Z,1011.28
2023-02-11T03:52:00.925Z,1011.28
2023-02-11T03:53:00.910Z,1011.31
2023-02-11T03:54:00.920Z,1011.30
2023-02-11T03:55:01.693Z,1011.26
2023-02-11T03:56:00.907Z,1011.26
2023-02-11T03:57:00.887Z,1011.13
2023-02-11T03:58:00.874Z,1011.24
2023-02-11T03:59:00.879Z,1011.22
2023-02-11T04:00:00.852Z,1011.10
2023-02-11T04:01:00.879Z,1011.13
2023-02-11T04:02:00.823Z,1011.15
2023-02-11T04:03:00.929Z,1011.11
2023-02-11T04:04:00.871Z,1011.13
2023-02-11T04:05:00.836Z,1011.10
2023-02-11T04:06:00.801Z,1011.00
2023-02-11T04:07:00.800Z,1010.98
2023-02-11T04:08:00.790Z,1011.09
2023-02-11T04:09:00.831Z,1011.03
2023-02-11T04:10:00.772Z,1011.06
2023-02-11T04:11:00.790Z,1011.07
2023-02-11T04:12:00.764Z,1011.05
2023-02-11T04:13:00.777Z,1011.12
2023-02-11T04:14:00.762Z,1011.07
2023-02-11T04:15:00.748Z,1011.03
2023-02-11T04:16:00.768Z,1011.01
2023-02-11T04:17:00.714Z,1010.96
2023-02-11T04:18:00.717Z,1011.00
2023-02-11T04:19:00.733Z,1011.01
2023-02-11T04:20:00.705Z,1011.02
2023-02-11T04:21:00.690Z,1010.92
2023-02-11T04:22:00.686Z,1010.97
2023-02-11T04:23:00.675Z,1010.98
2023-02-11T04:24:00.711Z,1010.98
2023-02-11T04:25:00.660Z,1010.95
2023-02-11T04:26:00.687Z,1010.90
2023-02-11T04:27:00.641Z,1010.85
2023-02-11T04:28:00.704Z,1010.86
2023-02-11T04:29:00.656Z,1010.87
2023-02-11T04:30:00.655Z,1010.80
2023-02-11T04:31:00.666Z,1010.83
2023-02-11T04:32:00.657Z,1010.74
2023-02-11T04:33:00.606Z,1010.83
2023-02-11T04:34:00.596Z,1010.73
2023-02-11T04:35:00.616Z,1010.77
2023-02-11T04:36:00.575Z,1010.82
2023-02-11T04:37:00.569Z,1010.78
2023-02-11T04:38:00.560Z,1010.86
2023-02-11T04:39:00.556Z,1010.88
2023-02-11T04:40:00.575Z,1010.94
2023-02-11T04:41:00.548Z,1010.99
2023-02-11T04:42:00.528Z,1011.04
2023-02-11T04:43:00.520Z,1010.97
2023-02-11T04:44:00.514Z,1010.95
2023-02-11T04:45:00.558Z,1010.93
2023-02-11T04:46:00.529Z,1010.94
2023-02-11T04:47:00.520Z,1010.97
2023-02-11T04:48:00.489Z,1010.90
2023-02-11T04:49:00.490Z,1010.94
2023-02-11T04:50:00.498Z,1010.95
2023-02-11T04:51:00.456Z,1010.93
2023-02-11T04:52:00.465Z,1010.96
2023-02-11T04:53:00.452Z,1010.98
2023-02-11T04:54:00.447Z,1010.86
2023-02-11T04:55:00.452Z,1010.97
2023-02-11T04:56:00.424Z,1010.85
2023-02-11T04:57:00.413Z,1010.99
2023-02-11T04:58:00.408Z,1011.00
2023-02-11T04:59:00.400Z,1011.02
2023-02-11T05:00:00.422Z,1011.01
2023-02-11T05:01:00.408Z,1011.03
2023-02-11T05:02:00.391Z,1011.03
2023-02-11T05:03:00.381Z,1011.11
2023-02-11T05:04:00.394Z,1011.10
2023-02-11T05:05:00.382Z,1011.00
2023-02-11T05:06:00.347Z,1011.09
2023-02-11T05:07:00.336Z,1011.06
2023-02-11T05:08:33.223Z,1011.09
2023-02-11T05:09:00.328Z,1011.14
2023-02-11T05:10:00.343Z,1011.10
2023-02-11T05:11:00.316Z,1011.19
2023-02-11T05:12:00.313Z,1011.19
2023-02-11T05:13:00.293Z,1011.14
2023-02-11T05:14:00.289Z,1011.09
2023-02-11T05:15:01.308Z,1011.11
2023-02-11T05:16:00.274Z,1011.10
2023-02-11T05:17:00.392Z,1011.08
2023-02-11T05:18:00.260Z,1011.07
2023-02-11T05:19:00.258Z,1011.13
2023-02-11T05:20:00.351Z,1011.15
2023-02-11T05:21:00.240Z,1011.21
2023-02-11T05:22:02.990Z,1011.16
2023-02-11T05:23:01.226Z,1011.14
2023-02-11T05:24:00.225Z,1011.19
2023-02-11T05:25:00.237Z,1011.17
2023-02-11T05:26:00.208Z,1011.21
2023-02-11T05:27:00.197Z,1011.17
2023-02-11T05:28:00.218Z,1011.24
2023-02-11T05:29:00.176Z,1011.20
2023-02-11T05:30:00.226Z,1011.23
2023-02-11T05:31:00.200Z,1011.19
2023-02-11T05:32:00.201Z,1011.28
2023-02-11T05:33:00.168Z,1011.23
2023-02-11T05:34:00.154Z,1011.24
2023-02-11T05:35:00.180Z,1011.20
2023-02-11T05:36:00.152Z,1011.28
2023-02-11T05:37:00.221Z,1011.27
2023-02-11T05:38:00.142Z,1011.23
2023-02-11T05:39:00.106Z,1011.28
2023-02-11T05:40:00.316Z,1011.21
2023-02-11T05:41:00.115Z,1011.21
2023-02-11T05:42:00.117Z,1011.16
2023-02-11T05:43:00.108Z,1011.24
2023-02-11T05:44:00.107Z,1011.21
2023-02-11T05:45:00.062Z,1011.15
2023-02-11T05:46:00.181Z,1011.16
2023-02-11T05:47:00.045Z,1011.11
2023-02-11T05:48:00.038Z,1011.10
2023-02-11T05:49:00.067Z,1011.12
2023-02-11T05:50:00.063Z,1011.11
2023-02-11T05:51:00.226Z,1011.04
2023-02-11T05:52:00.014Z,1011.04
2023-02-11T05:52:59.997Z,1011.06
2023-02-11T05:53:59.995Z,1011.07
2023-02-11T05:54:59.982Z,1011.04
2023-02-11T05:56:00.007Z,1011.09
2023-02-11T05:56:59.967Z,1011.08
2023-02-11T05:57:59.960Z,1011.08
2023-02-11T05:58:59.974Z,1011.00
2023-02-11T05:59:59.959Z,1010.99
2023-02-11T06:00:59.966Z,1011.08
2023-02-11T06:01:59.937Z,1011.06
2023-02-11T06:02:59.963Z,1011.13
2023-02-11T06:04:00.018Z,1010.97
2023-02-11T06:04:59.928Z,1011.04
2023-02-11T06:05:59.924Z,1010.94
2023-02-11T06:06:59.896Z,1011.01
2023-02-11T06:07:59.897Z,1010.91
2023-02-11T06:08:59.879Z,1010.93
2023-02-11T06:09:59.888Z,1010.90
2023-02-11T06:10:59.901Z,1011.01
2023-02-11T06:11:59.874Z,1010.99
2023-02-11T06:12:59.856Z,1010.97
2023-02-11T06:13:59.839Z,1011.00
2023-02-11T06:14:59.845Z,1010.90
2023-02-11T06:15:59.916Z,1010.96
2023-02-11T06:16:59.819Z,1010.89
2023-02-11T06:17:59.821Z,1010.95
2023-02-11T06:18:59.807Z,1010.91
2023-02-11T06:19:59.798Z,1010.90
2023-02-11T06:20:59.814Z,1010.93
2023-02-11T06:21:59.779Z,1010.91
2023-02-11T06:22:59.777Z,1010.96
2023-02-11T06:23:59.773Z,1011.00
2023-02-11T06:25:02.018Z,1011.01
2023-02-11T06:26:00.776Z,1010.96
2023-02-11T06:26:59.743Z,1010.99
2023-02-11T06:27:59.758Z,1010.95
2023-02-11T06:28:59.733Z,1011.05
2023-02-11T06:29:59.722Z,1011.01
2023-02-11T06:30:59.828Z,1011.04
2023-02-11T06:31:59.818Z,1011.06
2023-02-11T06:32:59.715Z,1011.08
2023-02-11T06:33:59.733Z,1011.09
2023-02-11T06:34:59.689Z,1011.09
2023-02-11T06:35:59.706Z,1011.10
2023-02-11T06:36:59.684Z,1011.00
2023-02-11T06:37:59.679Z,1010.92
2023-02-11T06:38:59.658Z,1010.94
2023-02-11T06:39:59.646Z,1010.92
2023-02-11T06:40:59.675Z,1010.94
2023-02-11T06:42:00.233Z,1010.96
2023-02-11T06:42:59.630Z,1010.99
2023-02-11T06:43:59.623Z,1010.89
2023-02-11T06:44:59.624Z,1010.97
2023-02-11T06:45:59.642Z,1010.98
2023-02-11T06:46:59.598Z,1011.00
2023-02-11T06:47:59.586Z,1011.01
2023-02-11T06:48:59.649Z,1010.98
2023-02-11T06:49:59.577Z,1010.99
2023-02-11T06:50:59.592Z,1010.99
2023-02-11T06:51:59.566Z,1011.09
2023-02-11T06:52:59.566Z,1011.11
2023-02-11T06:53:59.539Z,1011.11
2023-02-11T06:54:59.545Z,1011.14
2023-02-11T06:55:59.593Z,1011.21
2023-02-11T06:56:59.524Z,1011.23
2023-02-11T06:57:59.514Z,1011.09
2023-02-11T06:58:59.508Z,1011.08
2023-02-11T06:59:59.537Z,1011.13
2023-02-11T07:00:59.531Z,1011.11
2023-02-11T07:01:59.505Z,1011.06
2023-02-11T07:02:59.539Z,1011.05
2023-02-11T07:03:59.467Z,1011.15
2023-02-11T07:04:59.568Z,1011.03
2023-02-11T07:05:59.473Z,1011.13
2023-02-11T07:06:59.470Z,1011.05
2023-02-11T07:07:59.440Z,1011.02
2023-02-11T07:08:59.439Z,1011.09
2023-02-11T07:09:59.420Z,1011.07
2023-02-11T07:10:59.415Z,1011.08
2023-02-11T07:11:59.437Z,1011.02
2023-02-11T07:12:59.409Z,1011.02
2023-02-11T07:13:59.400Z,1011.02
2023-02-11T07:14:59.380Z,1011.01
2023-02-11T07:15:59.399Z,1011.03
2023-02-11T07:16:59.403Z,1011.11
2023-02-11T07:17:59.375Z,1011.12
2023-02-11T07:18:59.344Z,1011.13
2023-02-11T07:20:00.357Z,1011.20
2023-02-11T07:20:59.352Z,1011.25
2023-02-11T07:21:59.413Z,1011.24
2023-02-11T07:22:59.333Z,1011.27
2023-02-11T07:23:59.328Z,1011.31
2023-02-11T07:24:59.310Z,1011.26
2023-02-11T07:25:59.306Z,1011.29
2023-02-11T07:26:59.340Z,1011.35
2023-02-11T07:27:59.328Z,1011.35
2023-02-11T07:28:59.414Z,1011.20
2023-02-11T07:29:59.271Z,1011.37
2023-02-11T07:30:59.311Z,1011.36
2023-02-11T07:31:59.313Z,1011.32
2023-02-11T07:32:59.500Z,1011.37
2023-02-11T07:33:59.248Z,1011.34
2023-02-11T07:34:59.307Z,1011.37
2023-02-11T07:35:59.248Z,1011.39
2023-02-11T07:36:59.240Z,1011.31
2023-02-11T07:37:59.210Z,1011.29
2023-02-11T07:38:59.245Z,1011.34
2023-02-11T07:39:59.228Z,1011.32
2023-02-11T07:40:59.192Z,1011.36
2023-02-11T07:41:59.421Z,1011.37
2023-02-11T07:42:59.183Z,1011.43
2023-02-11T07:43:59.206Z,1011.43
2023-02-11T07:44:59.172Z,1011.48
2023-02-11T07:45:59.161Z,1011.53
2023-02-11T07:46:59.207Z,1011.62
2023-02-11T07:47:59.214Z,1011.60
2023-02-11T07:48:59.125Z,1011.63
2023-02-11T07:49:59.124Z,1011.68
2023-02-11T07:50:59.119Z,1011.60
2023-02-11T07:51:59.140Z,1011.60
2023-02-11T07:52:59.107Z,1011.58
2023-02-11T07:53:59.102Z,1011.59
2023-02-11T07:54:59.088Z,1011.60
2023-02-11T07:55:59.090Z,1011.58
2023-02-11T07:56:59.101Z,1011.64
2023-02-11T07:57:59.075Z,1011.64
2023-02-11T07:58:59.083Z,1011.61
2023-02-11T07:59:59.055Z,1011.62
2023-02-11T08:00:59.052Z,1011.57
2023-02-11T08:01:59.146Z,1011.60
2023-02-11T08:02:59.043Z,1011.59
2023-02-11T08:03:59.022Z,1011.59
2023-02-11T08:04:59.023Z,1011.61
2023-02-11T08:05:59.011Z,1011.66
2023-02-11T08:06:59.350Z,1011.64
2023-02-11T08:07:59.990Z,1011.60
2023-02-11T08:08:58.987Z,1011.65
2023-02-11T08:09:58.978Z,1011.64
2023-02-11T08:10:58.973Z,1011.63
2023-02-11T08:11:58.988Z,1011.63
2023-02-11T08:12:58.970Z,1011.67
2023-02-11T08:13:58.949Z,1011.58
2023-02-11T08:14:58.941Z,1011.58
2023-02-11T08:15:59.056Z,1011.64
2023-02-11T08:16:58.950Z,1011.59
2023-02-11T08:17:58.912Z,1011.68
2023-02-11T08:18:58.929Z,1011.69
2023-02-11T08:19:58.898Z,1011.67
2023-02-11T08:20:58.892Z,1011.70
2023-02-11T08:21:58.916Z,1011.72
2023-02-11T08:22:58.877Z,1011.76
2023-02-11T08:23:59.071Z,1011.78
2023-02-11T08:24:58.927Z,1011.87
2023-02-11T08:25:58.865Z,1011.87
2023-02-11T08:26:58.882Z,1011.93
2023-02-11T08:27:58.889Z,1011.91
2023-02-11T08:28:58.884Z,1011.97
2023-02-11T08:29:58.835Z,1011.93
2023-02-11T08:30:58.858Z,1011.99
2023-02-11T08:31:58.850Z,1011.97
2023-02-11T08:32:58.825Z,1011.98
2023-02-11T08:33:58.803Z,1011.92
2023-02-11T08:34:58.795Z,1012.00
2023-02-11T08:35:58.883Z,1011.93
2023-02-11T08:36:58.770Z,1011.95
2023-02-11T08:37:58.797Z,1011.93
2023-02-11T08:39:12.230Z,1011.93
2023-02-11T08:40:00.770Z,1011.92
2023-02-11T08:40:58.738Z,1011.86
2023-02-11T08:41:58.736Z,1011.95
2023-02-11T08:42:58.741Z,1011.90
2023-02-11T08:43:58.708Z,1011.99
2023-02-11T08:44:58.704Z,1011.94
2023-02-11T08:46:01.615Z,1012.05
2023-02-11T08:46:58.689Z,1012.01
2023-02-11T08:47:58.716Z,1011.96
2023-02-11T08:48:58.680Z,1011.99
2023-02-11T08:49:58.667Z,1011.99
2023-02-11T08:50:58.685Z,1011.94
2023-02-11T08:51:58.651Z,1011.98
2023-02-11T08:52:59.225Z,1011.98
2023-02-11T08:53:58.649Z,1011.96
2023-02-11T08:54:58.638Z,1011.95
2023-02-11T08:55:58.623Z,1011.95
2023-02-11T08:56:58.672Z,1011.89
2023-02-11T08:57:58.634Z,1011.90
2023-02-11T08:58:58.596Z,1011.90
2023-02-11T08:59:58.617Z,1011.94
2023-02-11T09:00:58.612Z,1011.86
2023-02-11T09:01:58.620Z,1011.83
2023-02-11T09:02:58.612Z,1011.84
2023-02-11T09:03:58.584Z,1011.80
2023-02-11T09:04:58.564Z,1011.79
2023-02-11T09:05:58.567Z,1011.85
2023-02-11T09:06:58.535Z,1011.80
2023-02-11T09:07:58.567Z,1011.85
2023-02-11T09:08:58.553Z,1011.86
2023-02-11T09:09:58.555Z,1011.78
2023-02-11T09:10:58.510Z,1011.86
2023-02-11T09:11:58.506Z,1011.89
2023-02-11T09:12:58.523Z,1011.84
2023-02-11T09:13:58.490Z,1011.89
2023-02-11T09:14:58.480Z,1011.89
2023-02-11T09:15:58.477Z,1011.80
2023-02-11T09:16:58.595Z,1011.84
2023-02-11T09:17:58.491Z,1011.81
2023-02-11T09:18:58.446Z,1011.67
2023-02-11T09:19:58.458Z,1011.77
2023-02-11T09:20:58.440Z,1011.78
2023-02-11T09:21:58.433Z,1011.82
2023-02-11T09:22:58.456Z,1011.76
2023-02-11T09:23:58.409Z,1011.77
2023-02-11T09:24:58.405Z,1011.76
2023-02-11T09:25:58.398Z,1011.70
2023-02-11T09:26:58.390Z,1011.77
2023-02-11T09:27:58.438Z,1011.75
2023-02-11T09:28:58.400Z,1011.79
2023-02-11T09:29:58.363Z,1011.73
2023-02-11T09:30:58.469Z,1011.78
2023-02-11T09:31:58.514Z,1011.77
2023-02-11T09:32:58.377Z,1011.86
2023-02-11T09:33:58.343Z,1011.82
2023-02-11T09:34:58.337Z,1011.78
2023-02-11T09:35:58.344Z,1011.79
2023-02-11T09:36:58.322Z,1011.82
2023-02-11T09:37:58.518Z,1011.79
2023-02-11T09:38:58.304Z,1011.84
2023-02-11T09:39:58.295Z,1011.74
2023-02-11T09:40:58.289Z,1011.77
2023-02-11T09:41:58.280Z,1011.68
2023-02-11T09:43:02.369Z,1011.71
2023-02-11T09:44:00.262Z,1011.74
2023-02-11T09:44:58.256Z,1011.73
2023-02-11T09:45:58.274Z,1011.75
2023-02-11T09:46:58.254Z,1011.78
2023-02-11T09:47:58.271Z,1011.82
2023-02-11T09:48:58.235Z,1011.83
2023-02-11T09:49:58.213Z,1011.84
2023-02-11T09:50:58.220Z,1011.93
2023-02-11T09:51:58.244Z,1011.94
2023-02-11T09:52:58.225Z,1011.92
2023-02-11T09:54:00.319Z,1011.88
2023-02-11T09:54:59.196Z,1011.96
2023-02-11T09:55:58.176Z,1011.96
2023-02-11T09:56:58.213Z,1012.00
2023-02-11T09:57:58.187Z,1011.96
2023-02-11T09:58:58.163Z,1012.01
2023-02-11T09:59:58.566Z,1012.04
2023-02-11T10:00:58.398Z,1012.03
2023-02-11T10:01:58.139Z,1011.98
2023-02-11T10:02:58.168Z,1012.06
2023-02-11T10:03:58.153Z,1012.03
2023-02-11T10:04:58.159Z,1012.05
2023-02-11T10:05:58.108Z,1012.10
2023-02-11T10:06:58.101Z,1012.10
2023-02-11T10:07:58.120Z,1012.06
2023-02-11T10:08:58.080Z,1012.07
2023-02-11T10:09:58.078Z,1012.07
2023-02-11T10:10:58.073Z,1012.08
2023-02-11T10:11:58.071Z,1012.09
2023-02-11T10:12:58.055Z,1012.02
2023-02-11T10:13:58.131Z,1012.00
2023-02-11T10:14:58.037Z,1012.03
2023-02-11T10:15:58.043Z,1012.14
2023-02-11T10:16:58.026Z,1012.11
2023-02-11T10:17:58.024Z,1012.09
2023-02-11T10:18:58.032Z,1012.06
2023-02-11T10:19:58.082Z,1012.03
2023-02-11T10:20:58.035Z,1012.24
2023-02-11T10:21:58.087Z,1012.22
2023-02-11T10:22:57.994Z,1012.29
2023-02-11T10:23:58.000Z,1012.28
2023-02-11T10:24:57.963Z,1012.33
2023-02-11T10:25:57.946Z,1012.32
2023-02-11T10:26:57.943Z,1012.30
2023-02-11T10:27:58.019Z,1012.38
2023-02-11T10:28:57.952Z,1012.36
2023-02-11T10:29:57.920Z,1012.40
2023-02-11T10:30:58.065Z,1012.42
2023-02-11T10:31:58.465Z,1012.38
2023-02-11T10:32:58.938Z,1012.34
2023-02-11T10:33:57.915Z,1012.43
2023-02-11T10:34:57.888Z,1012.38
2023-02-11T10:35:57.888Z,1012.39
2023-02-11T10:36:57.870Z,1012.46
2023-02-11T10:37:57.860Z,1012.39
2023-02-11T10:38:57.959Z,1012.35
2023-02-11T10:39:57.857Z,1012.34
2023-02-11T10:40:57.912Z,1012.35
2023-02-11T10:41:57.818Z,1012.30
2023-02-11T10:42:57.815Z,1012.40
2023-02-11T10:43:57.840Z,1012.37
2023-02-11T10:44:57.800Z,1012.29
2023-02-11T10:45:57.879Z,1012.31
2023-02-11T10:46:57.787Z,1012.25
2023-02-11T10:47:57.778Z,1012.27
2023-02-11T10:48:57.825Z,1012.23
2023-02-11T10:49:57.787Z,1012.22
2023-02-11T10:50:57.753Z,1012.23
2023-02-11T10:51:57.775Z,1012.23
2023-02-11T10:52:57.740Z,1012.26
2023-02-11T10:53:57.758Z,1012.15
2023-02-11T10:54:57.739Z,1012.19
2023-02-11T10:55:57.728Z,1012.16
2023-02-11T10:56:57.719Z,1012.17
2023-02-11T10:57:57.747Z,1012.17
2023-02-11T10:58:57.734Z,1012.17
2023-02-11T10:59:57.701Z,1012.23
2023-02-11T11:00:57.718Z,1012.15
2023-02-11T11:01:57.737Z,1012.17
2023-02-11T11:02:57.695Z,1012.19
2023-02-11T11:03:57.662Z,1012.18
2023-02-11T11:04:57.768Z,1012.16
2023-02-11T11:05:58.737Z,1012.05
2023-02-11T11:06:58.637Z,1012.07
2023-02-11T11:07:57.631Z,1012.07
2023-02-11T11:09:30.327Z,1012.01
2023-02-11T11:09:57.670Z,1012.07
2023-02-11T11:10:57.675Z,1012.06
2023-02-11T11:11:57.619Z,1012.05
2023-02-11T11:12:57.614Z,1012.13
2023-02-11T11:13:57.651Z,1012.10
2023-02-11T11:14:57.608Z,1012.09
2023-02-11T11:15:57.937Z,1012.15
2023-02-11T11:16:57.613Z,1012.14
2023-02-11T11:18:11.361Z,1012.12
2023-02-11T11:18:59.618Z,1012.09
2023-02-11T11:19:57.646Z,1012.11
2023-02-11T11:20:57.916Z,1012.09
2023-02-11T11:21:57.594Z,1011.98
2023-02-11T11:22:57.616Z,1012.03
2023-02-11T11:23:57.716Z,1012.00
2023-02-11T11:24:57.527Z,1012.00
2023-02-11T11:25:57.692Z,1011.97
2023-02-11T11:26:57.588Z,1012.01
2023-02-11T11:27:57.601Z,1011.99
2023-02-11T11:28:57.529Z,1012.05
2023-02-11T11:29:57.514Z,1012.03
2023-02-11T11:30:57.602Z,1012.12
2023-02-11T11:31:57.604Z,1012.08
2023-02-11T11:32:57.514Z,1012.03
2023-02-11T11:33:57.518Z,1012.05
2023-02-11T11:34:57.503Z,1012.03
2023-02-11T11:35:57.460Z,1012.06
2023-02-11T11:36:57.690Z,1012.06
2023-02-11T11:37:59.919Z,1011.98
2023-02-11T11:38:57.423Z,1012.05
2023-02-11T11:39:58.436Z,1012.01
2023-02-11T11:40:57.461Z,1012.05
2023-02-11T11:41:57.532Z,1012.06
2023-02-11T11:42:58.222Z,1011.95
2023-02-11T11:43:57.519Z,1012.02
2023-02-11T11:44:57.396Z,1012.04
2023-02-11T11:45:57.429Z,1012.02
2023-02-11T11:46:57.763Z,1012.07
2023-02-11T11:47:57.385Z,1012.08
2023-02-11T11:48:57.343Z,1012.09
2023-02-11T11:49:57.364Z,1012.05
2023-02-11T11:50:57.467Z,1012.08
2023-02-11T11:51:57.436Z,1012.00
2023-02-11T11:52:57.485Z,1012.11
2023-02-11T11:53:57.429Z,1012.02
2023-02-11T11:54:57.481Z,1011.97
2023-02-11T11:55:59.686Z,1012.06
2023-02-11T11:56:58.478Z,1011.99
2023-02-11T11:57:57.505Z,1012.04
2023-02-11T11:58:57.272Z,1011.97
2023-02-11T11:59:57.781Z,1011.90
2023-02-11T12:00:57.311Z,1011.96
2023-02-11T12:01:57.335Z,1011.92
2023-02-11T12:02:57.438Z,1011.93
2023-02-11T12:03:57.287Z,1011.96
2023-02-11T12:04:57.249Z,1011.93